This demonstration page uses our WeatherBlox Daily Observations layout. Learn more.

41.55636, -103.73856

Hourly Observations for January 6, 2019

Temp ( °F °C ) Dew Point ( °F °C ) Humidity (%) Winds ( mph kmh ) Pressure ( in mb ) Visibility ( mi km ) Precip ( " mm )
12:53 am 00:53 Mostly Clear 34 1.1 27 -2.8 76 76 E 9 15 29.83 1010 10 16.09344 0 0
1:53 am 01:53 Clear 34 1.1 27 -2.8 76 76 E 7 11 29.8 1009 10 16.09344 0 0
2:53 am 02:53 Clear 32 0 27 -2.8 82 82 Calm 29.8 1009 10 16.09344 0 0
3:53 am 03:53 Mostly Clear 33 0.6 28 -2.2 82 82 ESE 6 9 29.77 1008 10 16.09344 0 0
4:53 am 04:53 Clear 31 -0.6 28 -2.2 89 89 E 9 15 29.74 1007 10 16.09344 0 0
5:53 am 05:53 Clear 32 0 28 -2.2 85 85 ESE 8 13 29.71 1006 10 16.09344 0 0
6:53 am 06:53 Mostly Clear 31 -0.6 28 -2.2 89 89 E 5 7 29.71 1006 10 16.09344 0 0
7:53 am 07:53 Partly Cloudy 31 -0.6 28 -2.2 89 89 Calm 29.71 1006 10 16.09344 0 0
8:53 am 08:53 Sunny 34 1.1 30 -1.1 85 85 Calm 29.71 1006 10 16.09344 0 0
9:53 am 09:53 Sunny 38 3.3 31 -0.6 76 76 Calm 29.68 1005 10 16.09344 0 0
10:53 am 10:53 Sunny 41 5 30 -1.1 65 65 NW 5 7 29.62 1003 10 16.09344 0 0
11:53 am 11:53 Sunny 44 6.7 31 -0.6 60 60 NNW 5 7 29.56 1001 10 16.09344 0 0
12:53 pm 12:53 Sunny 46 7.8 30 -1.1 54 54 VRB 3 6 29.53 1000 10 16.09344 0 0
1:53 pm 13:53 Sunny 53 11.7 30 -1.1 41 41 VRB 6 9 32.45 1099 10 16.09344 0 0
2:53 pm 14:53 Sunny 56 13.3 29 -1.7 36 36 W 16 26 32.42 1098 10 16.09344 0 0
3:53 pm 15:53 Sunny 53 11.7 30 -1.1 41 41 W 18 30 32.45 1099 10 16.09344 0 0
4:53 pm 16:53 Clear 49 9.4 28 -2.2 44 44 WNW 15 24 29.56 1001 10 16.09344 0 0
5:53 pm 17:53 Clear 45 7.2 28 -2.2 52 52 WNW 15 24 29.59 1002 10 16.09344 0 0
6:53 pm 18:53 Clear 41 5 28 -2.2 60 60 WNW 10 17 29.62 1003 10 16.09344 0 0
7:53 pm 19:53 Clear 41 5 29 -1.7 62 62 WNW 9 15 29.65 1004 10 16.09344 0 0
8:53 pm 20:53 Clear 42 5.6 29 -1.7 60 60 WNW 13 20 29.65 1004 10 16.09344 0 0
9:53 pm 21:53 Clear 41 5 28 -2.2 60 60 W 18 30 29.65 1004 10 16.09344 0 0
10:53 pm 22:53 Clear 39 3.9 26 -3.3 60 60 W 20 31 29.65 1004 10 16.09344 0 0
11:53 pm 23:53 Clear 39 3.9 25 -3.9 57 57 W 18 30 29.65 1004 10 16.09344 0 0

Powered by AerisWeather